Time;durP1;ratioP1;P1;durP2;ratioP2;P2;SDS_P1;SDS_P2;PMS_P1;PMS_P2;Temp;Humidity;BMP_temperature;BMP_pressure;BME280_temperature;BME280_humidity;BME280_pressure;Samples;Min_cycle;Max_cycle;Signal;HPM_P1;HPM_P2
2022/04/25 00:00:11;;;;;;;10.10;3.90;;;;;;;15.61;67.59;96504.31;4886167;29;20189;-83
2022/04/25 00:02:44;;;;;;;8.57;3.90;;;;;;;15.48;67.40;96483.50;4863227;29;20247;-86
2022/04/25 00:05:11;;;;;;;9.70;4.30;;;;;;;15.31;68.08;96464.78;4876735;29;20231;-85
2022/04/25 00:07:38;;;;;;;10.93;5.43;;;;;;;15.43;67.30;96493.44;4875612;29;20268;-86
2022/04/25 00:10:06;;;;;;;7.23;4.23;;;;;;;15.50;67.64;96513.88;4875093;29;20590;-84
2022/04/25 00:12:34;;;;;;;8.33;4.73;;;;;;;15.40;67.37;96504.06;4877148;29;20196;-89
2022/04/25 00:15:07;;;;;;;11.47;4.50;;;;;;;15.32;67.55;96479.50;4878063;29;20345;-87
2022/04/25 00:17:35;;;;;;;13.23;4.33;;;;;;;15.43;67.33;96501.25;4875632;29;20257;-85
2022/04/25 00:20:10;;;;;;;9.13;4.53;;;;;;;15.34;67.48;96488.03;4876141;29;20211;-88
2022/04/25 00:22:38;;;;;;;6.33;4.33;;;;;;;15.16;68.50;96490.22;4881037;29;20192;-84
2022/04/25 00:25:08;;;;;;;8.20;4.10;;;;;;;15.28;68.34;96498.91;4881799;29;20228;-89
2022/04/25 00:27:38;;;;;;;9.30;4.60;;;;;;;15.40;68.07;96500.63;4882939;29;20227;-85
2022/04/25 00:30:06;;;;;;;10.50;4.50;;;;;;;15.26;67.78;96469.50;4898225;29;20200;-87
2022/04/25 00:32:35;;;;;;;9.73;4.50;;;;;;;15.18;68.69;96484.88;4878776;29;20203;-88
2022/04/25 00:35:10;;;;;;;10.50;4.47;;;;;;;15.26;68.60;96499.03;4875835;29;20210;-88
2022/04/25 00:37:37;;;;;;;13.07;3.80;;;;;;;14.98;68.84;96469.84;4876768;29;20203;-87
2022/04/25 00:40:04;;;;;;;7.33;4.03;;;;;;;14.72;68.70;96429.16;4875444;29;20672;-90
2022/04/25 00:42:32;;;;;;;8.80;4.30;;;;;;;14.74;69.62;96471.59;4874084;29;20199;-91
2022/04/25 00:44:59;;;;;;;7.87;4.03;;;;;;;14.62;70.09;96450.69;4859178;29;20697;-92
2022/04/25 00:47:30;;;;;;;8.77;4.13;;;;;;;14.74;69.66;96475.03;4883346;29;20202;-87
2022/04/25 00:50:10;;;;;;;6.67;4.50;;;;;;;14.89;69.44;96483.53;4897955;29;20228;-89
2022/04/25 00:52:38;;;;;;;8.67;4.57;;;;;;;15.11;68.97;96492.31;4900634;29;20274;-85
2022/04/25 00:55:11;;;;;;;15.83;5.37;;;;;;;15.17;68.60;96486.66;4900125;29;20557;-86
2022/04/25 00:57:38;;;;;;;10.73;5.17;;;;;;;14.84;68.22;96443.94;4886765;29;20310;-91
2022/04/25 01:00:12;;;;;;;16.63;5.60;;;;;;;15.07;68.38;96492.66;4903358;29;20186;-86
2022/04/25 01:02:40;;;;;;;15.57;4.90;;;;;;;14.85;68.63;96469.06;4887361;29;20259;-86
2022/04/25 01:05:11;;;;;;;10.10;5.63;;;;;;;14.79;69.41;96472.13;4864758;29;20367;-84
2022/04/25 01:07:40;;;;;;;10.57;4.57;;;;;;;14.83;69.47;96483.97;4878181;29;20302;-89
2022/04/25 01:10:13;;;;;;;11.77;5.00;;;;;;;14.87;69.09;96495.84;4876950;29;20445;-86
2022/04/25 01:12:40;;;;;;;12.13;4.40;;;;;;;14.69;69.74;96477.97;4875494;29;20219;-91
2022/04/25 01:15:10;;;;;;;8.17;4.30;;;;;;;14.25;70.98;96468.97;4875842;29;20204;-88
2022/04/25 01:17:38;;;;;;;8.57;4.50;;;;;;;14.42;70.47;96485.16;4875659;29;20612;-90
2022/04/25 01:20:09;;;;;;;8.63;5.00;;;;;;;14.21;71.15;96468.38;4890000;29;20204;-91
2022/04/25 01:28:37;;;;;;;11.07;4.73;;;;;;;14.12;71.68;96463.78;4875838;29;20205;-90
2022/04/25 01:31:04;;;;;;;12.30;5.13;;;;;;;13.99;71.34;96455.16;4874431;29;20199;-91
2022/04/25 01:33:35;;;;;;;6.20;4.43;;;;;;;14.29;72.03;96488.69;4875671;29;20198;-90
2022/04/25 01:36:03;;;;;;;6.30;4.50;;;;;;;14.16;71.18;96438.34;4890751;29;20287;-92
2022/04/25 01:38:30;;;;;;;10.47;4.77;;;;;;;14.47;70.48;96469.16;4874335;29;20594;-91
2022/04/25 01:41:02;;;;;;;11.90;4.40;;;;;;;14.31;71.14;96477.22;4877780;29;20223;-92
2022/04/25 01:43:38;;;;;;;10.37;5.00;;;;;;;14.24;70.89;96465.53;4864412;29;20609;-88
2022/04/25 01:46:05;;;;;;;9.70;5.10;;;;;;;14.01;71.17;96440.28;4879266;29;20237;-90
2022/04/25 01:48:33;;;;;;;8.43;4.13;;;;;;;14.00;72.42;96462.00;4875509;29;20215;-88
2022/04/25 01:51:01;;;;;;;8.40;4.50;;;;;;;14.21;71.61;96460.53;4881969;29;20192;-88
2022/04/25 01:53:32;;;;;;;14.10;4.77;;;;;;;14.26;70.69;96448.03;4878946;29;20198;-89
2022/04/25 01:56:00;;;;;;;8.13;4.30;;;;;;;14.40;70.42;96460.13;4876911;29;20204;-87
2022/04/25 01:58:27;;;;;;;9.97;4.50;;;;;;;13.98;71.57;96448.28;4893139;29;20206;-85
2022/04/25 02:00:56;;;;;;;8.03;4.53;;;;;;;13.69;72.43;96416.44;4904041;29;20192;-89
2022/04/25 02:03:24;;;;;;;10.57;5.07;;;;;;;13.60;72.88;96417.03;4876303;29;20215;-92
2022/04/25 02:05:52;;;;;;;11.80;4.23;;;;;;;13.75;73.26;96456.81;4873409;29;20270;-90
2022/04/25 02:08:21;;;;;;;9.90;4.60;;;;;;;13.62;74.73;96451.59;4880948;29;20637;-91
2022/04/25 02:11:19;;;;;;;16.57;4.93;;;;;;;13.05;76.08;96427.69;4875867;29;20581;-92
2022/04/25 02:13:35;;;;;;;10.97;5.30;;;;;;;13.03;76.28;96436.47;4874355;29;20206;-91
2022/04/25 02:16:04;;;;;;;12.37;4.80;;;;;;;13.00;76.68;96444.50;4874775;29;20199;-87
2022/04/25 02:18:32;;;;;;;13.60;5.27;;;;;;;12.95;76.91;96438.75;4873150;29;20200;-87
2022/04/25 02:20:59;;;;;;;14.00;5.93;;;;;;;13.03;76.79;96457.28;4874721;29;20286;-90
2022/04/25 02:23:28;;;;;;;9.47;4.70;;;;;;;13.06;76.51;96416.34;4873499;29;20209;-90
2022/04/25 02:25:55;;;;;;;8.80;5.30;;;;;;;13.24;75.68;96439.47;4873093;29;20223;-90
2022/04/25 02:28:23;;;;;;;12.57;5.60;;;;;;;13.22;76.16;96441.34;4872928;29;20296;-88
2022/04/25 02:30:51;;;;;;;13.00;5.83;;;;;;;13.38;75.70;96436.78;4874330;29;20246;-89
2022/04/25 02:33:20;;;;;;;11.90;5.30;;;;;;;13.50;74.84;96425.56;4878072;29;20233;-85
2022/04/25 02:35:50;;;;;;;7.97;4.80;;;;;;;13.71;73.93;96444.94;4884803;29;20279;-87
2022/04/25 02:38:18;;;;;;;9.20;5.10;;;;;;;13.60;73.86;96427.44;4859678;29;20208;-89
2022/04/25 02:41:04;;;;;;;9.27;4.70;;;;;;;13.67;74.24;96422.66;4889097;29;20216;-90
2022/04/25 02:43:45;;;;;;;10.17;5.60;;;;;;;13.65;73.49;96417.56;4873821;29;20289;-87
2022/04/25 02:46:17;;;;;;;9.87;5.27;;;;;;;13.81;72.33;96428.59;4872545;29;20715;-87
2022/04/25 02:48:46;;;;;;;13.83;4.87;;;;;;;13.52;72.74;96408.91;4873986;29;20214;-91
2022/04/25 02:51:16;;;;;;;10.00;5.40;;;;;;;13.74;72.74;96437.78;4857212;29;20638;-93
2022/04/25 02:53:44;;;;;;;13.03;6.57;;;;;;;13.63;73.41;96405.59;4873699;29;20219;-86
2022/04/25 02:56:12;;;;;;;10.77;5.57;;;;;;;13.55;73.51;96407.88;4878389;29;20223;-87
2022/04/25 02:58:39;;;;;;;11.03;6.33;;;;;;;13.45;73.68;96407.69;4887101;29;20208;-90
2022/04/25 03:01:09;;;;;;;9.27;5.80;;;;;;;13.65;73.19;96432.34;4888145;29;20320;-89
2022/04/25 03:03:38;;;;;;;15.00;6.37;;;;;;;13.65;73.24;96433.19;4890986;29;20199;-90
2022/04/25 03:06:09;;;;;;;11.47;5.73;;;;;;;13.39;74.15;96412.47;4889637;29;20224;-85
2022/04/25 03:08:38;;;;;;;10.43;5.63;;;;;;;13.42;74.14;96430.44;4879933;29;20210;-87
2022/04/25 03:11:09;;;;;;;13.43;5.77;;;;;;;13.17;74.04;96412.22;4894676;29;20581;-86
2022/04/25 03:13:38;;;;;;;10.00;5.73;;;;;;;13.50;74.23;96441.16;4886515;29;20277;-89
2022/04/25 03:16:07;;;;;;;11.60;5.73;;;;;;;13.40;74.24;96446.16;4908518;29;20232;-87
2022/04/25 03:18:37;;;;;;;10.67;5.80;;;;;;;13.34;73.96;96450.94;4902696;29;20270;-85
2022/04/25 03:21:06;;;;;;;10.83;5.70;;;;;;;13.18;74.39;96450.28;4878159;29;20203;-85
2022/04/25 03:23:36;;;;;;;8.40;4.87;;;;;;;13.06;74.13;96455.31;4879364;29;20195;-85
2022/04/25 03:26:07;;;;;;;8.23;5.10;;;;;;;12.85;74.51;96432.47;4862734;29;20274;-85
2022/04/25 03:28:35;;;;;;;10.37;5.20;;;;;;;12.97;75.00;96450.72;4879257;29;20202;-85
2022/04/25 03:31:06;;;;;;;14.83;6.23;;;;;;;12.64;75.60;96413.91;4892870;29;20201;-85
2022/04/25 03:33:35;;;;;;;9.83;5.87;;;;;;;12.57;76.10;96441.19;4879487;29;20729;-85
2022/04/25 03:36:03;;;;;;;11.67;5.60;;;;;;;12.27;77.80;96430.97;4877508;29;20207;-85
2022/04/25 03:38:30;;;;;;;11.27;5.93;;;;;;;12.39;78.16;96436.31;4877634;29;20202;-84
2022/04/25 03:40:59;;;;;;;11.23;5.83;;;;;;;12.32;78.71;96446.25;4881263;29;20209;-84
2022/04/25 03:43:27;;;;;;;13.40;6.10;;;;;;;12.40;78.40;96446.63;4877261;29;20291;-85
2022/04/25 03:45:56;;;;;;;12.10;6.13;;;;;;;12.28;78.82;96432.63;4887816;29;20273;-88
2022/04/25 03:48:24;;;;;;;13.53;6.50;;;;;;;12.58;78.64;96450.66;4875368;29;20197;-92
2022/04/25 03:50:54;;;;;;;13.70;6.67;;;;;;;12.37;77.85;96405.25;4873753;29;20228;-89
2022/04/25 03:53:22;;;;;;;9.17;6.03;;;;;;;12.40;77.83;96417.22;4872771;29;20250;-88
2022/04/25 03:58:35;;;;;;;10.97;5.37;;;;;;;12.21;78.02;96389.81;4875258;29;20676;-85
2022/04/25 04:01:11;;;;;;;10.53;5.67;;;;;;;12.50;77.75;96431.28;4879952;29;20227;-90
2022/04/25 04:03:39;;;;;;;12.73;6.37;;;;;;;12.64;78.47;96452.84;4873059;29;20588;-85
2022/04/25 04:06:09;;;;;;;11.30;6.10;;;;;;;12.75;77.70;96455.63;4870874;29;20230;-86
2022/04/25 04:08:37;;;;;;;14.87;6.70;;;;;;;12.68;77.28;96456.94;4872762;29;20235;-85
2022/04/25 04:11:05;;;;;;;10.50;5.53;;;;;;;12.75;77.58;96452.19;4871965;29;20261;-85
2022/04/25 04:13:35;;;;;;;11.97;6.07;;;;;;;12.71;77.77;96461.09;4871690;29;20201;-87
2022/04/25 04:16:03;;;;;;;9.90;6.03;;;;;;;12.73;77.38;96459.25;4871011;29;20196;-85
2022/04/25 04:18:31;;;;;;;12.80;6.10;;;;;;;12.66;77.23;96455.34;4871213;29;20232;-85
2022/04/25 04:21:01;;;;;;;12.73;6.43;;;;;;;12.65;77.36;96467.50;4871662;29;20203;-86
2022/04/25 04:23:37;;;;;;;15.80;6.13;;;;;;;12.63;77.89;96452.97;4872541;29;20206;-84
2022/04/25 04:26:05;;;;;;;11.37;5.97;;;;;;;12.69;77.22;96461.22;4872962;29;20233;-91
2022/04/25 04:28:36;;;;;;;11.73;6.60;;;;;;;12.51;77.06;96428.56;4871277;29;20189;-85
2022/04/25 04:31:03;;;;;;;12.23;6.90;;;;;;;12.71;77.52;96461.09;4875125;29;20288;-83
2022/04/25 04:33:31;;;;;;;10.57;6.00;;;;;;;12.44;78.57;96419.53;4874929;29;20254;-88
2022/04/25 04:38:46;;;;;;;10.97;5.87;;;;;;;12.78;77.50;96426.84;4875117;29;20254;-88
2022/04/25 04:41:14;;;;;;;11.30;6.50;;;;;;;13.08;76.66;96455.25;4878491;29;20204;-88
2022/04/25 04:43:49;;;;;;;7.83;5.63;;;;;;;13.12;76.67;96450.69;4876317;29;20186;-90
2022/04/25 04:46:16;;;;;;;12.73;6.43;;;;;;;13.12;76.67;96437.69;4876263;29;20235;-92
2022/04/25 04:48:48;;;;;;;13.73;6.17;;;;;;;13.41;75.64;96462.59;4878014;29;20203;-91
2022/04/25 04:51:16;;;;;;;11.83;6.37;;;;;;;13.49;75.03;96466.38;4897310;29;20209;-88
2022/04/25 04:53:44;;;;;;;14.73;6.27;;;;;;;13.33;75.25;96433.69;4895309;29;20195;-86
2022/04/25 04:56:11;;;;;;;12.73;6.73;;;;;;;13.48;75.23;96451.69;4900321;29;20218;-85
2022/04/25 04:58:39;;;;;;;12.83;6.87;;;;;;;13.31;76.37;96452.00;4882465;29;20212;-86
2022/04/25 05:01:10;;;;;;;12.63;7.40;;;;;;;13.10;76.52;96431.75;4891210;29;20325;-85
2022/04/25 05:03:41;;;;;;;13.20;7.50;;;;;;;13.33;76.21;96431.06;4877277;29;20240;-87
2022/04/25 05:06:09;;;;;;;10.23;7.87;;;;;;;13.70;74.88;96458.91;4876175;29;20738;-88
2022/04/25 05:08:36;;;;;;;13.57;7.40;;;;;;;13.79;73.89;96455.66;4874858;29;20196;-90
2022/04/25 05:11:05;;;;;;;16.17;6.40;;;;;;;13.73;74.52;96449.09;4876184;29;20203;-88
2022/04/25 05:13:34;;;;;;;14.90;6.30;;;;;;;13.73;73.45;96406.63;4875556;29;20189;-87
2022/04/25 05:16:02;;;;;;;11.13;4.90;;;;;;;14.25;72.84;96435.97;4875862;29;20296;-87
2022/04/25 05:18:32;;;;;;;11.30;5.70;;;;;;;14.65;70.76;96428.81;4875205;29;20211;-89
2022/04/25 05:21:03;;;;;;;19.73;5.10;;;;;;;14.91;70.12;96429.50;4876487;29;20198;-87
2022/04/25 05:23:32;;;;;;;12.93;5.13;;;;;;;15.48;67.74;96420.88;4878806;29;20206;-90
2022/04/25 05:26:03;;;;;;;13.97;5.40;;;;;;;15.93;66.68;96424.38;4884067;29;20219;-86
2022/04/25 05:28:32;;;;;;;10.93;5.33;;;;;;;16.37;65.14;96404.41;4859629;29;20204;-90
2022/04/25 05:30:59;;;;;;;16.90;9.27;;;;;;;16.63;65.05;96405.84;4874988;29;20197;-91
2022/04/25 05:33:34;;;;;;;14.37;7.60;;;;;;;16.32;67.12;96391.72;4874657;29;20236;-92
2022/04/25 05:36:02;;;;;;;11.43;6.20;;;;;;;16.40;66.52;96376.28;4877244;29;20247;-90
2022/04/25 05:38:30;;;;;;;12.73;6.07;;;;;;;16.36;66.60;96371.41;4885189;29;20270;-88
2022/04/25 05:41:00;;;;;;;10.30;6.07;;;;;;;16.64;66.25;96387.41;4891446;29;20304;-85
2022/04/25 05:43:37;;;;;;;13.13;6.50;;;;;;;16.91;66.73;96405.28;4879434;29;20250;-84
2022/04/25 05:46:13;;;;;;;11.50;6.37;;;;;;;16.95;65.47;96381.38;4870156;29;20261;-89
2022/04/25 05:54:14;;;;;;;14.53;6.43;;;;;;;17.50;62.30;96403.84;4883534;29;20601;-85
2022/04/25 05:56:41;;;;;;;11.57;5.50;;;;;;;17.96;61.57;96427.00;4882852;29;20193;-90
2022/04/25 05:59:09;;;;;;;12.23;5.70;;;;;;;17.97;59.96;96409.50;4887376;29;20219;-86
2022/04/25 06:01:37;;;;;;;12.07;5.53;;;;;;;17.94;59.11;96433.34;4879969;29;20302;-84
2022/04/25 06:04:10;;;;;;;12.90;5.90;;;;;;;17.84;58.63;96418.41;4883994;29;20201;-86
2022/04/25 06:06:37;;;;;;;11.47;5.30;;;;;;;18.02;57.54;96426.50;4875986;29;20694;-89
2022/04/25 06:09:05;;;;;;;8.53;4.77;;;;;;;18.29;58.01;96437.25;4874583;29;20223;-86
2022/04/25 06:11:33;;;;;;;8.47;4.50;;;;;;;18.41;57.00;96415.19;4874628;29;20194;-86
2022/04/25 06:14:02;;;;;;;13.17;5.10;;;;;;;18.53;56.85;96431.69;4874907;29;20227;-88
2022/04/25 06:16:32;;;;;;;10.43;4.63;;;;;;;18.42;57.08;96395.88;4874441;29;20222;-89
2022/04/25 06:18:59;;;;;;;16.30;4.43;;;;;;;18.53;56.87;96405.47;4873594;29;20326;-86
2022/04/25 06:21:27;;;;;;;11.97;4.10;;;;;;;18.83;56.08;96434.25;4873135;29;20213;-84
2022/04/25 06:23:54;;;;;;;8.80;4.60;;;;;;;18.73;55.87;96407.19;4880806;29;20647;-90
2022/04/25 06:26:21;;;;;;;10.50;4.30;;;;;;;18.61;56.95;96423.97;4858010;29;20787;-88
2022/04/25 06:28:49;;;;;;;10.10;4.03;;;;;;;18.71;57.17;96416.16;4875612;29;20204;-88
2022/04/25 06:31:16;;;;;;;10.37;4.57;;;;;;;18.98;57.15;96445.19;4875194;29;20605;-91
2022/04/25 06:33:46;;;;;;;9.87;4.13;;;;;;;18.68;56.83;96410.22;4876033;29;20218;-92
2022/04/25 06:36:53;;;;;;;10.90;4.73;;;;;;;19.15;55.52;96457.63;4876155;29;20207;-86
2022/04/25 06:40:15;;;;;;;8.20;3.90;;;;;;;19.24;54.44;96452.41;4890830;29;20218;-87
2022/04/25 06:43:01;;;;;;;12.10;4.80;;;;;;;19.49;55.14;96462.38;4869068;29;20215;-87
2022/04/25 06:45:30;;;;;;;11.10;4.30;;;;;;;19.38;54.62;96462.53;4874780;29;20672;-91
2022/04/25 06:47:58;;;;;;;9.43;4.30;;;;;;;19.26;53.25;96439.97;4857363;29;20905;-85
2022/04/25 06:50:29;;;;;;;10.83;4.30;;;;;;;19.26;54.44;96447.84;4875535;29;20210;-87
2022/04/25 06:52:57;;;;;;;9.00;4.13;;;;;;;18.77;53.85;96431.34;4889566;29;20203;-85
2022/04/25 06:55:26;;;;;;;6.97;3.77;;;;;;;18.39;53.19;96413.66;4875142;29;20206;-87
2022/04/25 06:57:55;;;;;;;10.63;3.83;;;;;;;18.88;52.16;96458.28;4874832;29;20224;-85
2022/04/25 07:00:40;;;;;;;12.30;4.20;;;;;;;19.23;51.44;96453.38;4885569;29;20294;-85
2022/04/25 07:03:09;;;;;;;8.83;3.97;;;;;;;19.63;51.42;96458.53;4874274;29;20250;-86
2022/04/25 07:05:37;;;;;;;9.83;4.10;;;;;;;19.93;50.65;96457.50;4876040;29;20206;-85
2022/04/25 07:08:07;;;;;;;8.20;3.77;;;;;;;20.13;50.45;96448.63;4887509;29;20218;-90
2022/04/25 07:10:34;;;;;;;13.20;5.47;;;;;;;20.33;49.65;96444.13;4901528;29;20236;-89
2022/04/25 07:13:03;;;;;;;7.37;4.10;;;;;;;20.61;47.90;96454.53;4886485;29;20619;-89
2022/04/25 07:15:59;;;;;;;8.00;4.10;;;;;;;20.20;47.64;96418.16;4866715;29;20216;-86
2022/04/25 07:18:29;;;;;;;19.20;4.97;;;;;;;20.35;47.18;96431.66;4876317;29;20223;-86
2022/04/25 07:20:58;;;;;;;8.30;4.10;;;;;;;20.20;46.39;96402.38;4894804;29;21153;-86
2022/04/25 07:29:02;;;;;;;13.13;4.90;;;;;;;20.84;43.13;96413.69;4878541;29;20217;-84
2022/04/25 07:31:40;;;;;;;6.27;2.87;;;;;;;20.60;43.49;96431.84;4860557;29;20216;-88
2022/04/25 07:34:12;;;;;;;6.73;3.20;;;;;;;20.60;43.86;96431.84;4879230;29;20260;-91
2022/04/25 07:36:39;;;;;;;11.03;3.60;;;;;;;20.74;42.36;96428.72;4891081;29;20649;-85
2022/04/25 07:39:07;;;;;;;10.00;2.87;;;;;;;20.35;43.47;96410.63;4882999;29;20209;-86
2022/04/25 07:41:34;;;;;;;8.00;2.50;;;;;;;20.57;40.73;96426.84;4878252;29;20220;-85
2022/04/25 07:44:04;;;;;;;9.50;4.13;;;;;;;20.57;42.41;96416.34;4887561;29;20260;-84
2022/04/25 07:46:33;;;;;;;12.30;3.90;;;;;;;20.83;42.45;96405.94;4876682;29;20237;-85
2022/04/25 07:49:02;;;;;;;11.87;3.17;;;;;;;20.66;43.04;96404.94;4895000;29;20260;-86
2022/04/25 07:51:29;;;;;;;13.70;4.07;;;;;;;21.08;42.67;96416.59;4878148;29;20276;-85
2022/04/25 07:53:57;;;;;;;12.77;3.90;;;;;;;21.06;44.00;96400.13;4863669;29;20208;-85
2022/04/25 07:56:26;;;;;;;9.10;3.37;;;;;;;21.27;42.23;96412.19;4881162;29;20205;-83
2022/04/25 07:58:54;;;;;;;11.87;3.60;;;;;;;21.42;42.72;96405.38;4885601;29;20182;-87
2022/04/25 08:01:21;;;;;;;11.53;3.87;;;;;;;21.26;42.92;96403.44;4887110;29;20756;-88
2022/04/25 08:03:51;;;;;;;9.87;3.47;;;;;;;20.96;43.48;96383.53;4876140;29;20204;-89
2022/04/25 08:06:20;;;;;;;7.47;3.90;;;;;;;21.31;43.89;96387.19;4874632;29;20218;-84
2022/04/25 08:08:49;;;;;;;16.73;4.30;;;;;;;21.54;43.57;96396.25;4892404;29;20621;-84
2022/04/25 08:11:18;;;;;;;12.87;3.20;;;;;;;21.05;43.34;96360.78;4874895;29;20591;-85
2022/04/25 08:19:26;;;;;;;15.03;3.67;;;;;;;21.53;43.86;96391.97;4858846;29;20190;-84
2022/04/25 08:21:57;;;;;;;7.93;3.53;;;;;;;21.27;43.70;96333.97;4860183;29;20284;-85
2022/04/25 08:24:26;;;;;;;13.30;4.07;;;;;;;21.83;43.06;96386.28;4857876;29;20192;-84
2022/04/25 08:26:55;;;;;;;15.90;4.37;;;;;;;21.87;43.39;96387.63;4858021;29;20323;-85
2022/04/25 08:29:24;;;;;;;15.17;3.77;;;;;;;21.38;43.38;96348.72;4859665;29;20220;-85
2022/04/25 08:31:52;;;;;;;10.50;3.30;;;;;;;21.62;43.69;96364.69;4875394;29;20255;-84
2022/04/25 08:34:29;;;;;;;9.63;3.67;;;;;;;21.58;43.53;96371.25;4862668;29;20244;-85
2022/04/25 08:36:59;;;;;;;11.73;4.00;;;;;;;21.57;43.28;96351.16;4846359;29;20201;-85
2022/04/25 08:39:28;;;;;;;12.90;3.83;;;;;;;21.46;44.31;96367.22;4866826;29;20251;-87
2022/04/25 08:42:01;;;;;;;13.67;4.17;;;;;;;21.42;45.43;96368.50;4877804;29;20273;-86
2022/04/25 08:44:30;;;;;;;8.40;3.87;;;;;;;21.67;44.13;96360.63;4890943;29;20215;-84
2022/04/25 08:47:01;;;;;;;14.33;3.73;;;;;;;22.04;42.90;96363.03;4888691;29;20210;-85
2022/04/25 08:49:28;;;;;;;16.13;4.00;;;;;;;21.75;42.96;96320.31;4885829;29;20690;-86
2022/04/25 08:52:01;;;;;;;14.70;4.70;;;;;;;22.16;43.22;96355.66;4847780;29;20211;-84
2022/04/25 08:54:35;;;;;;;16.27;4.43;;;;;;;21.98;42.92;96353.09;4879326;29;20271;-86
2022/04/25 08:57:20;;;;;;;15.97;4.77;;;;;;;21.76;42.97;96353.59;4864748;29;20250;-84
2022/04/25 08:59:48;;;;;;;21.67;4.67;;;;;;;21.74;43.00;96339.75;4880524;29;20273;-84
2022/04/25 09:02:49;;;;;;;13.10;4.17;;;;;;;21.83;44.37;96350.22;4882516;29;20290;-87
2022/04/25 09:05:18;;;;;;;15.77;4.27;;;;;;;22.15;43.34;96352.22;4862403;29;20210;-86
2022/04/25 09:07:46;;;;;;;19.90;4.10;;;;;;;22.46;42.71;96341.94;4876942;29;20242;-92
2022/04/25 09:10:16;;;;;;;14.73;3.70;;;;;;;22.53;42.35;96340.28;4846404;29;20266;-92
2022/04/25 09:12:46;;;;;;;18.80;4.00;;;;;;;22.30;42.17;96304.91;4877630;29;20311;-90
2022/04/25 09:15:21;;;;;;;22.47;4.50;;;;;;;22.85;41.76;96334.31;4877350;29;20329;-89
2022/04/25 09:17:55;;;;;;;12.10;4.47;;;;;;;23.13;41.56;96338.28;4875281;29;20226;-87
2022/04/25 09:20:29;;;;;;;17.43;3.90;;;;;;;22.82;41.96;96334.63;4874165;29;20578;-86
2022/04/25 09:22:58;;;;;;;10.97;4.40;;;;;;;22.61;41.91;96338.53;4860209;29;20193;-85
2022/04/25 09:25:28;;;;;;;14.13;3.87;;;;;;;22.66;41.67;96316.94;4861181;29;20902;-87
2022/04/25 09:28:14;;;;;;;14.60;4.50;;;;;;;22.49;42.23;96331.06;4874939;29;20235;-86
2022/04/25 09:31:00;;;;;;;11.70;3.77;;;;;;;22.65;42.10;96307.38;4874231;29;20814;-84
2022/04/25 09:33:29;;;;;;;15.83;3.53;;;;;;;22.90;41.16;96305.59;4873503;29;20679;-85
2022/04/25 09:36:35;;;;;;;9.57;4.20;;;;;;;22.95;41.83;96321.78;4874647;29;20244;-84
2022/04/25 09:39:28;;;;;;;12.37;3.80;;;;;;;22.84;41.42;96303.59;4873821;29;20219;-85
2022/04/25 09:41:57;;;;;;;13.23;3.50;;;;;;;22.79;41.22;96263.69;4889872;29;20652;-89
2022/04/25 09:44:59;;;;;;;12.70;4.27;;;;;;;22.90;41.87;96316.16;4860032;29;20217;-85
2022/04/25 09:47:31;;;;;;;13.73;4.57;;;;;;;;;;4874651;29;20234;-86
2022/04/25 09:50:07;;;;;;;14.30;4.50;;;;;;;23.57;41.11;96313.22;4858556;29;20698;-84
2022/04/25 09:53:03;;;;;;;10.67;3.83;;;;;;;23.74;41.25;96311.38;4875185;29;20191;-88
2022/04/25 09:55:36;;;;;;;13.97;5.27;;;;;;;23.74;40.17;96280.44;4858050;29;20677;-85
2022/04/25 09:58:25;;;;;;;16.13;4.50;;;;;;;24.06;40.06;96306.00;4875654;29;20661;-89
2022/04/25 10:01:07;;;;;;;11.60;3.80;;;;;;;23.61;40.43;96301.31;4873455;29;20208;-85
2022/04/25 10:03:37;;;;;;;10.20;3.67;;;;;;;23.51;40.84;96292.75;4877129;29;20204;-91
2022/04/25 10:06:05;;;;;;;8.77;3.20;;;;;;;23.63;40.74;96274.69;4873718;29;20200;-87
2022/04/25 10:08:35;;;;;;;12.67;3.37;;;;;;;23.71;41.00;96299.31;4873965;29;20591;-87
2022/04/25 10:11:09;;;;;;;10.67;3.50;;;;;;;23.61;41.11;96298.66;4859090;29;20733;-86
2022/04/25 10:13:39;;;;;;;10.67;3.30;;;;;;;23.84;40.88;96304.91;4874134;29;20212;-85
2022/04/25 10:16:07;;;;;;;10.93;3.27;;;;;;;23.97;40.32;96285.81;4857440;29;20206;-85
2022/04/25 10:18:35;;;;;;;18.07;3.90;;;;;;;23.81;40.78;96276.13;4881032;29;20220;-84
2022/04/25 10:21:07;;;;;;;7.03;3.13;;;;;;;24.01;40.75;96298.53;4874227;29;20204;-85
2022/04/25 10:23:35;;;;;;;13.23;3.60;;;;;;;23.62;40.44;96221.00;4875593;29;20225;-84
2022/04/25 10:26:03;;;;;;;9.23;3.73;;;;;;;24.24;39.63;96270.38;4874296;29;20208;-85
2022/04/25 10:28:35;;;;;;;7.60;3.37;;;;;;;24.32;40.39;96297.81;4874622;29;20250;-89
2022/04/25 10:31:13;;;;;;;14.30;3.67;;;;;;;24.01;41.18;96297.72;4872873;29;20198;-84
2022/04/25 10:33:52;;;;;;;16.80;3.93;;;;;;;23.40;41.37;96241.06;4874485;29;20197;-86
2022/04/25 10:36:37;;;;;;;11.53;3.17;;;;;;;23.42;42.88;96301.66;4876131;29;20288;-85
2022/04/25 10:39:21;;;;;;;8.53;3.70;;;;;;;23.59;41.56;96241.66;4875395;29;20205;-85
2022/04/25 10:44:45;;;;;;;16.70;3.63;;;;;;;23.91;41.83;96276.75;4876239;29;20198;-84
2022/04/25 10:47:18;;;;;;;12.27;3.77;;;;;;;24.07;41.17;96284.66;4878071;29;20202;-85
2022/04/25 10:49:53;;;;;;;9.00;3.50;;;;;;;23.95;42.40;96282.53;4875779;29;20689;-85
2022/04/25 10:55:09;;;;;;;15.10;4.50;;;;;;;24.74;40.85;96275.25;4874260;29;20619;-87
2022/04/25 10:58:07;;;;;;;9.63;3.90;;;;;;;24.93;40.37;96273.97;4875209;29;20294;-85
2022/04/25 11:00:44;;;;;;;13.30;3.87;;;;;;;25.12;40.32;96270.00;4873595;29;20214;-85
2022/04/25 11:03:23;;;;;;;10.80;4.10;;;;;;;24.93;40.38;96273.97;4875901;29;20207;-85
2022/04/25 11:05:59;;;;;;;9.27;4.27;;;;;;;24.48;41.67;96268.59;4879007;29;20305;-84
2022/04/25 11:08:32;;;;;;;14.27;4.70;;;;;;;24.66;41.00;96267.34;4873348;29;20237;-90
2022/04/25 11:11:02;;;;;;;9.70;3.87;;;;;;;24.64;40.92;96257.91;4874439;29;20207;-86
2022/04/25 11:13:32;;;;;;;10.40;3.53;;;;;;;24.84;40.97;96254.66;4874269;29;20703;-86
2022/04/25 11:16:21;;;;;;;8.93;3.90;;;;;;;24.56;41.65;96244.72;4857750;29;20235;-86
2022/04/25 11:19:08;;;;;;;12.67;5.53;;;;;;;24.74;40.73;96250.59;4872931;29;20614;-87
2022/04/25 11:21:45;;;;;;;23.97;4.53;;;;;;;25.03;39.55;96261.28;4873113;29;20203;-86
2022/04/25 11:24:29;;;;;;;15.57;3.97;;;;;;;25.33;39.28;96254.22;4872868;29;20248;-90
2022/04/25 11:26:58;;;;;;;17.30;4.37;;;;;;;25.32;39.49;96248.13;4873901;29;20198;-90
2022/04/25 11:29:29;;;;;;;18.57;3.87;;;;;;;25.21;39.69;96213.25;4876604;29;20223;-90
2022/04/25 11:32:37;;;;;;;16.63;4.10;;;;;;;25.19;39.33;96253.19;4872739;29;20296;-86
2022/04/25 11:35:08;;;;;;;12.77;4.00;;;;;;;24.96;40.53;96239.16;4873375;29;20642;-84
2022/04/25 11:37:38;;;;;;;17.60;4.57;;;;;;;25.21;39.76;96242.41;4879601;29;20199;-86
2022/04/25 11:40:10;;;;;;;17.43;4.17;;;;;;;25.14;40.35;96247.63;4873969;29;20698;-84
2022/04/25 11:42:38;;;;;;;13.70;3.97;;;;;;;25.28;39.79;96244.19;4876548;29;20220;-84
2022/04/25 11:45:07;;;;;;;16.40;4.00;;;;;;;24.66;39.20;96237.38;4861297;29;20213;-89
2022/04/25 11:47:36;;;;;;;13.03;3.90;;;;;;;24.79;39.64;96233.16;4860319;29;20295;-85
2022/04/25 11:50:12;;;;;;;13.63;4.20;;;;;;;25.11;39.64;96240.03;4861826;29;20207;-85
2022/04/25 11:52:49;;;;;;;14.40;3.70;;;;;;;24.95;41.11;96233.06;4861943;29;20204;-91
2022/04/25 11:55:32;;;;;;;12.57;4.37;;;;;;;24.76;39.90;96151.41;4891774;29;20183;-90
2022/04/25 11:58:04;;;;;;;17.03;4.57;;;;;;;25.21;39.27;96197.34;4899903;29;20202;-84
2022/04/25 12:00:34;;;;;;;9.67;3.90;;;;;;;25.46;39.29;96217.34;4899645;29;20251;-84
2022/04/25 12:03:24;;;;;;;15.30;3.97;;;;;;;25.43;38.95;96213.22;4855149;29;20632;-86
2022/04/25 12:05:53;;;;;;;20.90;4.43;;;;;;;25.52;39.44;96220.09;4891359;29;20211;-86
2022/04/25 12:16:43;;;;;;;12.37;4.23;;;;;;;24.94;40.19;96210.19;4876506;29;20281;-85
2022/04/25 12:19:14;;;;;;;17.03;4.37;;;;;;;25.11;40.05;96210.88;4845687;29;20608;-86
2022/04/25 12:22:07;;;;;;;20.00;4.77;;;;;;;25.08;40.47;96210.41;4874949;29;20271;-85
2022/04/25 12:24:45;;;;;;;18.53;4.23;;;;;;;24.64;40.80;96197.00;4876591;29;20223;-84
2022/04/25 12:27:13;;;;;;;14.13;4.30;;;;;;;24.93;41.18;96207.72;4876695;29;20687;-92
2022/04/25 12:30:08;;;;;;;16.13;4.30;;;;;;;25.26;40.01;96211.72;4875808;29;20596;-89